sensor_id;sensor_type;location;lat;lon;timestamp;temperature;humidity
4828;DHT22;2428;48.732;9.148;2022-12-18T00:00:20;-7.60;99.90
4828;DHT22;2428;48.732;9.148;2022-12-18T00:02:46;-7.60;99.90
4828;DHT22;2428;48.732;9.148;2022-12-18T00:05:11;-7.60;99.90
4828;DHT22;2428;48.732;9.148;2022-12-18T00:07:37;-7.60;99.90
4828;DHT22;2428;48.732;9.148;2022-12-18T00:10:03;-7.60;99.90
4828;DHT22;2428;48.732;9.148;2022-12-18T00:12:29;-7.60;99.90
4828;DHT22;2428;48.732;9.148;2022-12-18T00:14:55;-7.50;99.90
4828;DHT22;2428;48.732;9.148;2022-12-18T00:17:20;-7.50;99.90
4828;DHT22;2428;48.732;9.148;2022-12-18T00:19:46;-7.40;99.90
4828;DHT22;2428;48.732;9.148;2022-12-18T00:22:11;-7.40;99.90
4828;DHT22;2428;48.732;9.148;2022-12-18T00:24:37;-7.30;99.90
4828;DHT22;2428;48.732;9.148;2022-12-18T00:27:03;-7.40;99.90
4828;DHT22;2428;48.732;9.148;2022-12-18T00:29:28;-7.40;99.90
4828;DHT22;2428;48.732;9.148;2022-12-18T00:31:54;-7.40;99.90
4828;DHT22;2428;48.732;9.148;2022-12-18T00:34:19;-7.40;99.90
4828;DHT22;2428;48.732;9.148;2022-12-18T00:36:47;-7.40;99.90
4828;DHT22;2428;48.732;9.148;2022-12-18T00:39:13;-7.40;99.90
4828;DHT22;2428;48.732;9.148;2022-12-18T00:41:38;-7.40;99.90
4828;DHT22;2428;48.732;9.148;2022-12-18T00:44:23;-7.50;99.90
4828;DHT22;2428;48.732;9.148;2022-12-18T00:46:48;-7.50;99.90
4828;DHT22;2428;48.732;9.148;2022-12-18T00:49:18;-7.50;99.90
4828;DHT22;2428;48.732;9.148;2022-12-18T00:51:44;-7.50;99.90
4828;DHT22;2428;48.732;9.148;2022-12-18T00:54:10;-7.50;99.90
4828;DHT22;2428;48.732;9.148;2022-12-18T00:56:39;-7.50;99.90
4828;DHT22;2428;48.732;9.148;2022-12-18T00:59:05;-7.50;99.90
4828;DHT22;2428;48.732;9.148;2022-12-18T01:01:31;-7.40;99.90
4828;DHT22;2428;48.732;9.148;2022-12-18T01:03:58;-7.30;99.90
4828;DHT22;2428;48.732;9.148;2022-12-18T01:06:24;-7.30;99.90
4828;DHT22;2428;48.732;9.148;2022-12-18T01:08:50;-7.30;99.90
4828;DHT22;2428;48.732;9.148;2022-12-18T01:11:18;-7.20;99.90
4828;DHT22;2428;48.732;9.148;2022-12-18T01:13:44;-7.30;99.90
4828;DHT22;2428;48.732;9.148;2022-12-18T01:16:12;-7.30;99.90
4828;DHT22;2428;48.732;9.148;2022-12-18T01:18:38;-7.40;99.90
4828;DHT22;2428;48.732;9.148;2022-12-18T01:21:09;-7.50;99.90
4828;DHT22;2428;48.732;9.148;2022-12-18T01:23:35;-7.50;99.90
4828;DHT22;2428;48.732;9.148;2022-12-18T01:26:05;-7.50;99.90
4828;DHT22;2428;48.732;9.148;2022-12-18T01:28:31;-7.60;99.90
4828;DHT22;2428;48.732;9.148;2022-12-18T01:30:57;-7.60;99.90
4828;DHT22;2428;48.732;9.148;2022-12-18T01:33:22;-7.60;99.90
4828;DHT22;2428;48.732;9.148;2022-12-18T01:35:48;-7.70;99.90
4828;DHT22;2428;48.732;9.148;2022-12-18T01:38:13;-7.80;99.90
4828;DHT22;2428;48.732;9.148;2022-12-18T01:40:39;-8.00;99.90
4828;DHT22;2428;48.732;9.148;2022-12-18T01:43:04;-8.00;99.90
4828;DHT22;2428;48.732;9.148;2022-12-18T01:45:31;-8.10;99.90
4828;DHT22;2428;48.732;9.148;2022-12-18T01:48:05;-8.10;99.90
4828;DHT22;2428;48.732;9.148;2022-12-18T01:53:20;-7.90;99.90
4828;DHT22;2428;48.732;9.148;2022-12-18T01:55:50;-7.90;99.90
4828;DHT22;2428;48.732;9.148;2022-12-18T01:58:17;-7.90;99.90
4828;DHT22;2428;48.732;9.148;2022-12-18T02:00:43;-7.80;99.90
4828;DHT22;2428;48.732;9.148;2022-12-18T02:03:09;-7.80;99.90
4828;DHT22;2428;48.732;9.148;2022-12-18T02:08:10;-7.70;99.90
4828;DHT22;2428;48.732;9.148;2022-12-18T02:15:52;-7.70;99.90
4828;DHT22;2428;48.732;9.148;2022-12-18T02:18:27;-7.80;99.90
4828;DHT22;2428;48.732;9.148;2022-12-18T02:23:56;-7.70;99.90
4828;DHT22;2428;48.732;9.148;2022-12-18T02:29:26;-7.70;99.90
4828;DHT22;2428;48.732;9.148;2022-12-18T02:31:56;-7.70;99.90
4828;DHT22;2428;48.732;9.148;2022-12-18T02:34:27;-7.70;99.90
4828;DHT22;2428;48.732;9.148;2022-12-18T02:36:54;-7.60;99.90
4828;DHT22;2428;48.732;9.148;2022-12-18T02:39:22;-7.60;99.90
4828;DHT22;2428;48.732;9.148;2022-12-18T02:41:49;-7.70;99.90
4828;DHT22;2428;48.732;9.148;2022-12-18T02:44:15;-7.70;99.90
4828;DHT22;2428;48.732;9.148;2022-12-18T02:46:43;-7.70;99.90
4828;DHT22;2428;48.732;9.148;2022-12-18T02:55:00;-7.60;99.90
4828;DHT22;2428;48.732;9.148;2022-12-18T03:05:23;-7.60;99.90
4828;DHT22;2428;48.732;9.148;2022-12-18T03:07:56;-7.60;99.90
4828;DHT22;2428;48.732;9.148;2022-12-18T03:10:27;-7.50;99.90
4828;DHT22;2428;48.732;9.148;2022-12-18T03:13:04;-7.60;99.90
4828;DHT22;2428;48.732;9.148;2022-12-18T03:15:45;-7.50;99.90
4828;DHT22;2428;48.732;9.148;2022-12-18T03:18:39;-7.50;99.90
4828;DHT22;2428;48.732;9.148;2022-12-18T03:21:08;-7.50;99.90
4828;DHT22;2428;48.732;9.148;2022-12-18T03:23:42;-7.50;99.90
4828;DHT22;2428;48.732;9.148;2022-12-18T03:26:12;-7.60;99.90
4828;DHT22;2428;48.732;9.148;2022-12-18T03:28:49;-7.50;99.90
4828;DHT22;2428;48.732;9.148;2022-12-18T03:31:16;-7.50;99.90
4828;DHT22;2428;48.732;9.148;2022-12-18T03:33:51;-7.40;99.90
4828;DHT22;2428;48.732;9.148;2022-12-18T03:36:17;-7.50;99.90
4828;DHT22;2428;48.732;9.148;2022-12-18T03:38:43;-7.40;99.90
4828;DHT22;2428;48.732;9.148;2022-12-18T03:44:10;-7.50;99.90
4828;DHT22;2428;48.732;9.148;2022-12-18T03:46:58;-7.60;99.90
4828;DHT22;2428;48.732;9.148;2022-12-18T03:52:30;-7.60;99.90
4828;DHT22;2428;48.732;9.148;2022-12-18T03:54:59;-7.60;99.90
4828;DHT22;2428;48.732;9.148;2022-12-18T03:57:28;-7.70;99.90
4828;DHT22;2428;48.732;9.148;2022-12-18T04:00:00;-7.70;99.90
4828;DHT22;2428;48.732;9.148;2022-12-18T04:02:26;-7.80;99.90
4828;DHT22;2428;48.732;9.148;2022-12-18T04:04:57;-7.80;99.90
4828;DHT22;2428;48.732;9.148;2022-12-18T04:07:24;-7.80;99.90
4828;DHT22;2428;48.732;9.148;2022-12-18T04:09:53;-7.80;99.90
4828;DHT22;2428;48.732;9.148;2022-12-18T04:12:20;-7.80;99.90
4828;DHT22;2428;48.732;9.148;2022-12-18T04:14:46;-7.80;99.90
4828;DHT22;2428;48.732;9.148;2022-12-18T04:17:12;-7.80;99.90
4828;DHT22;2428;48.732;9.148;2022-12-18T04:19:37;-7.90;99.90
4828;DHT22;2428;48.732;9.148;2022-12-18T04:22:03;-7.90;99.90
4828;DHT22;2428;48.732;9.148;2022-12-18T04:24:28;-7.90;99.90
4828;DHT22;2428;48.732;9.148;2022-12-18T04:26:54;-7.90;99.90
4828;DHT22;2428;48.732;9.148;2022-12-18T04:29:19;-7.90;99.90
4828;DHT22;2428;48.732;9.148;2022-12-18T04:31:45;-7.90;99.90
4828;DHT22;2428;48.732;9.148;2022-12-18T04:34:10;-7.90;99.90
4828;DHT22;2428;48.732;9.148;2022-12-18T04:36:36;-7.90;99.90
4828;DHT22;2428;48.732;9.148;2022-12-18T04:39:02;-7.90;99.90
4828;DHT22;2428;48.732;9.148;2022-12-18T04:41:27;-7.90;99.90
4828;DHT22;2428;48.732;9.148;2022-12-18T04:43:53;-7.90;99.90
4828;DHT22;2428;48.732;9.148;2022-12-18T04:46:19;-7.90;99.90
4828;DHT22;2428;48.732;9.148;2022-12-18T04:48:45;-8.00;99.90
4828;DHT22;2428;48.732;9.148;2022-12-18T04:51:11;-8.10;99.90
4828;DHT22;2428;48.732;9.148;2022-12-18T04:53:36;-8.20;99.90
4828;DHT22;2428;48.732;9.148;2022-12-18T04:56:07;-8.40;99.90
4828;DHT22;2428;48.732;9.148;2022-12-18T04:58:33;-8.30;99.90
4828;DHT22;2428;48.732;9.148;2022-12-18T05:00:59;-8.20;99.90
4828;DHT22;2428;48.732;9.148;2022-12-18T05:03:25;-8.20;99.90
4828;DHT22;2428;48.732;9.148;2022-12-18T05:05:51;-8.50;99.90
4828;DHT22;2428;48.732;9.148;2022-12-18T05:08:17;-8.50;99.90
4828;DHT22;2428;48.732;9.148;2022-12-18T05:10:43;-8.70;99.90
4828;DHT22;2428;48.732;9.148;2022-12-18T05:13:09;-8.60;99.90
4828;DHT22;2428;48.732;9.148;2022-12-18T05:15:34;-8.70;99.90
4828;DHT22;2428;48.732;9.148;2022-12-18T05:18:00;-8.70;99.90
4828;DHT22;2428;48.732;9.148;2022-12-18T05:20:27;-8.80;99.90
4828;DHT22;2428;48.732;9.148;2022-12-18T05:22:53;-8.80;99.90
4828;DHT22;2428;48.732;9.148;2022-12-18T05:25:20;-8.60;99.90
4828;DHT22;2428;48.732;9.148;2022-12-18T05:27:46;-8.70;99.90
4828;DHT22;2428;48.732;9.148;2022-12-18T05:30:12;-8.60;99.90
4828;DHT22;2428;48.732;9.148;2022-12-18T05:32:38;-8.60;99.90
4828;DHT22;2428;48.732;9.148;2022-12-18T05:35:09;-8.60;99.90
4828;DHT22;2428;48.732;9.148;2022-12-18T05:37:35;-8.60;99.90
4828;DHT22;2428;48.732;9.148;2022-12-18T05:40:01;-8.60;99.90
4828;DHT22;2428;48.732;9.148;2022-12-18T05:42:27;-8.60;99.90
4828;DHT22;2428;48.732;9.148;2022-12-18T05:44:52;-8.60;99.90
4828;DHT22;2428;48.732;9.148;2022-12-18T05:47:18;-8.50;99.90
4828;DHT22;2428;48.732;9.148;2022-12-18T05:49:43;-8.50;99.90
4828;DHT22;2428;48.732;9.148;2022-12-18T05:52:09;-8.40;99.90
4828;DHT22;2428;48.732;9.148;2022-12-18T05:54:35;-8.40;99.90
4828;DHT22;2428;48.732;9.148;2022-12-18T05:57:00;-8.40;99.90
4828;DHT22;2428;48.732;9.148;2022-12-18T05:59:26;-8.50;99.90
4828;DHT22;2428;48.732;9.148;2022-12-18T06:01:51;-8.60;99.90
4828;DHT22;2428;48.732;9.148;2022-12-18T06:04:17;-8.60;99.90
4828;DHT22;2428;48.732;9.148;2022-12-18T06:06:43;-8.60;99.90
4828;DHT22;2428;48.732;9.148;2022-12-18T06:09:08;-8.70;99.90
4828;DHT22;2428;48.732;9.148;2022-12-18T06:11:38;-8.70;99.90
4828;DHT22;2428;48.732;9.148;2022-12-18T06:14:05;-8.60;99.90
4828;DHT22;2428;48.732;9.148;2022-12-18T06:16:31;-8.80;99.90
4828;DHT22;2428;48.732;9.148;2022-12-18T06:19:01;-8.80;99.90
4828;DHT22;2428;48.732;9.148;2022-12-18T06:21:28;-8.90;99.90
4828;DHT22;2428;48.732;9.148;2022-12-18T06:23:54;-8.80;99.90
4828;DHT22;2428;48.732;9.148;2022-12-18T06:26:20;-8.80;99.90
4828;DHT22;2428;48.732;9.148;2022-12-18T06:28:46;-8.80;99.90
4828;DHT22;2428;48.732;9.148;2022-12-18T06:31:12;-8.90;99.90
4828;DHT22;2428;48.732;9.148;2022-12-18T06:33:38;-8.90;99.90
4828;DHT22;2428;48.732;9.148;2022-12-18T06:36:09;-8.90;99.90
4828;DHT22;2428;48.732;9.148;2022-12-18T06:38:37;-8.90;99.90
4828;DHT22;2428;48.732;9.148;2022-12-18T06:41:28;-8.80;99.90
4828;DHT22;2428;48.732;9.148;2022-12-18T06:43:54;-8.80;99.90
4828;DHT22;2428;48.732;9.148;2022-12-18T06:46:20;-8.80;99.90
4828;DHT22;2428;48.732;9.148;2022-12-18T06:48:49;-8.80;99.90
4828;DHT22;2428;48.732;9.148;2022-12-18T06:51:17;-8.80;99.90
4828;DHT22;2428;48.732;9.148;2022-12-18T06:53:43;-8.80;99.90
4828;DHT22;2428;48.732;9.148;2022-12-18T06:56:08;-8.60;99.90
4828;DHT22;2428;48.732;9.148;2022-12-18T06:58:34;-8.80;99.90
4828;DHT22;2428;48.732;9.148;2022-12-18T07:01:04;-8.60;99.90
4828;DHT22;2428;48.732;9.148;2022-12-18T07:03:31;-8.80;99.90
4828;DHT22;2428;48.732;9.148;2022-12-18T07:05:56;-8.80;99.90
4828;DHT22;2428;48.732;9.148;2022-12-18T07:08:22;-8.80;99.90
4828;DHT22;2428;48.732;9.148;2022-12-18T07:10:48;-8.80;99.90
4828;DHT22;2428;48.732;9.148;2022-12-18T07:13:17;-8.80;99.90
4828;DHT22;2428;48.732;9.148;2022-12-18T07:15:43;-8.80;99.90
4828;DHT22;2428;48.732;9.148;2022-12-18T07:18:09;-8.80;99.90
4828;DHT22;2428;48.732;9.148;2022-12-18T07:20:35;-8.80;99.90
4828;DHT22;2428;48.732;9.148;2022-12-18T07:23:03;-8.80;99.90
4828;DHT22;2428;48.732;9.148;2022-12-18T07:25:29;-8.70;99.90
4828;DHT22;2428;48.732;9.148;2022-12-18T07:27:54;-8.60;99.90
4828;DHT22;2428;48.732;9.148;2022-12-18T07:30:20;-8.50;99.90
4828;DHT22;2428;48.732;9.148;2022-12-18T07:32:46;-8.40;99.90
4828;DHT22;2428;48.732;9.148;2022-12-18T07:35:11;-8.30;99.90
4828;DHT22;2428;48.732;9.148;2022-12-18T07:37:37;-8.30;99.90
4828;DHT22;2428;48.732;9.148;2022-12-18T07:40:02;-8.30;99.90
4828;DHT22;2428;48.732;9.148;2022-12-18T07:42:28;-8.30;99.90
4828;DHT22;2428;48.732;9.148;2022-12-18T07:44:57;-8.40;99.90
4828;DHT22;2428;48.732;9.148;2022-12-18T07:47:23;-8.40;99.90
4828;DHT22;2428;48.732;9.148;2022-12-18T07:49:49;-8.40;99.90
4828;DHT22;2428;48.732;9.148;2022-12-18T07:52:14;-8.40;99.90
4828;DHT22;2428;48.732;9.148;2022-12-18T07:54:40;-8.40;99.90
4828;DHT22;2428;48.732;9.148;2022-12-18T07:57:07;-8.40;99.90
4828;DHT22;2428;48.732;9.148;2022-12-18T07:59:32;-8.40;99.90
4828;DHT22;2428;48.732;9.148;2022-12-18T08:01:58;-8.40;99.90
4828;DHT22;2428;48.732;9.148;2022-12-18T08:04:24;-8.30;99.90
4828;DHT22;2428;48.732;9.148;2022-12-18T08:06:50;-8.30;99.90
4828;DHT22;2428;48.732;9.148;2022-12-18T08:09:16;-8.20;99.90
4828;DHT22;2428;48.732;9.148;2022-12-18T08:11:42;-7.90;99.90
4828;DHT22;2428;48.732;9.148;2022-12-18T08:14:08;-8.00;99.90
4828;DHT22;2428;48.732;9.148;2022-12-18T08:16:34;-7.90;99.90
4828;DHT22;2428;48.732;9.148;2022-12-18T08:18:59;-7.90;99.90
4828;DHT22;2428;48.732;9.148;2022-12-18T08:21:27;-7.80;99.90
4828;DHT22;2428;48.732;9.148;2022-12-18T08:23:54;-7.70;99.90
4828;DHT22;2428;48.732;9.148;2022-12-18T08:26:21;-7.50;99.90
4828;DHT22;2428;48.732;9.148;2022-12-18T08:28:47;-7.50;99.90
4828;DHT22;2428;48.732;9.148;2022-12-18T08:31:12;-7.50;99.90
4828;DHT22;2428;48.732;9.148;2022-12-18T08:33:39;-7.40;99.90
4828;DHT22;2428;48.732;9.148;2022-12-18T08:36:05;-7.40;99.90
4828;DHT22;2428;48.732;9.148;2022-12-18T08:38:32;-7.30;99.90
4828;DHT22;2428;48.732;9.148;2022-12-18T08:40:59;-7.30;99.90
4828;DHT22;2428;48.732;9.148;2022-12-18T08:43:26;-7.10;99.90
4828;DHT22;2428;48.732;9.148;2022-12-18T08:46:11;-6.90;99.90
4828;DHT22;2428;48.732;9.148;2022-12-18T08:48:36;-6.40;99.90
4828;DHT22;2428;48.732;9.148;2022-12-18T08:51:02;-6.30;99.90
4828;DHT22;2428;48.732;9.148;2022-12-18T08:53:27;-6.20;99.90
4828;DHT22;2428;48.732;9.148;2022-12-18T08:55:53;-6.20;99.90
4828;DHT22;2428;48.732;9.148;2022-12-18T08:58:19;-5.90;99.90
4828;DHT22;2428;48.732;9.148;2022-12-18T09:00:45;-5.10;99.90
4828;DHT22;2428;48.732;9.148;2022-12-18T09:03:12;-3.70;99.90
4828;DHT22;2428;48.732;9.148;2022-12-18T09:05:38;-2.50;99.90
4828;DHT22;2428;48.732;9.148;2022-12-18T09:08:03;-1.30;99.90
4828;DHT22;2428;48.732;9.148;2022-12-18T09:10:29;0.90;99.90
4828;DHT22;2428;48.732;9.148;2022-12-18T09:12:54;2.60;99.90
4828;DHT22;2428;48.732;9.148;2022-12-18T09:15:21;4.20;99.90
4828;DHT22;2428;48.732;9.148;2022-12-18T09:17:47;5.50;99.90
4828;DHT22;2428;48.732;9.148;2022-12-18T09:20:13;7.30;99.30
4828;DHT22;2428;48.732;9.148;2022-12-18T09:22:39;8.60;92.00
4828;DHT22;2428;48.732;9.148;2022-12-18T09:25:04;9.90;88.80
4828;DHT22;2428;48.732;9.148;2022-12-18T09:27:33;11.10;80.80
4828;DHT22;2428;48.732;9.148;2022-12-18T09:29:59;11.60;72.50
4828;DHT22;2428;48.732;9.148;2022-12-18T09:32:25;11.80;68.40
4828;DHT22;2428;48.732;9.148;2022-12-18T09:34:51;12.20;64.90
4828;DHT22;2428;48.732;9.148;2022-12-18T09:37:16;11.40;61.00
4828;DHT22;2428;48.732;9.148;2022-12-18T09:39:42;11.60;65.10
4828;DHT22;2428;48.732;9.148;2022-12-18T09:42:20;12.10;63.80
4828;DHT22;2428;48.732;9.148;2022-12-18T09:44:50;11.70;63.60
4828;DHT22;2428;48.732;9.148;2022-12-18T09:47:24;9.70;63.00
4828;DHT22;2428;48.732;9.148;2022-12-18T09:49:55;7.60;71.40
4828;DHT22;2428;48.732;9.148;2022-12-18T09:52:44;6.30;78.00
4828;DHT22;2428;48.732;9.148;2022-12-18T09:55:11;4.00;90.00
4828;DHT22;2428;48.732;9.148;2022-12-18T09:57:49;2.10;97.30
4828;DHT22;2428;48.732;9.148;2022-12-18T10:00:21;0.50;99.90
4828;DHT22;2428;48.732;9.148;2022-12-18T10:02:47;-0.40;99.90
4828;DHT22;2428;48.732;9.148;2022-12-18T10:05:17;-1.40;99.90
4828;DHT22;2428;48.732;9.148;2022-12-18T10:13:19;-2.50;99.90
4828;DHT22;2428;48.732;9.148;2022-12-18T10:16:00;-2.50;99.90
4828;DHT22;2428;48.732;9.148;2022-12-18T10:19:00;-2.40;99.90
4828;DHT22;2428;48.732;9.148;2022-12-18T10:21:36;-2.30;99.90
4828;DHT22;2428;48.732;9.148;2022-12-18T10:27:06;-2.40;99.90
4828;DHT22;2428;48.732;9.148;2022-12-18T10:29:34;-2.40;99.90
4828;DHT22;2428;48.732;9.148;2022-12-18T10:31:59;-2.40;99.90
4828;DHT22;2428;48.732;9.148;2022-12-18T10:34:25;-2.60;99.90
4828;DHT22;2428;48.732;9.148;2022-12-18T10:36:50;-2.60;99.90
4828;DHT22;2428;48.732;9.148;2022-12-18T10:39:17;-2.60;99.90
4828;DHT22;2428;48.732;9.148;2022-12-18T10:41:43;-2.50;99.90
4828;DHT22;2428;48.732;9.148;2022-12-18T10:44:21;-2.40;99.90
4828;DHT22;2428;48.732;9.148;2022-12-18T10:46:55;-2.40;99.90
4828;DHT22;2428;48.732;9.148;2022-12-18T10:49:32;-2.30;99.90
4828;DHT22;2428;48.732;9.148;2022-12-18T10:52:15;-2.10;99.90
4828;DHT22;2428;48.732;9.148;2022-12-18T10:55:13;-2.10;99.90
4828;DHT22;2428;48.732;9.148;2022-12-18T10:57:41;-2.20;99.90
4828;DHT22;2428;48.732;9.148;2022-12-18T11:02:50;-2.20;99.90
4828;DHT22;2428;48.732;9.148;2022-12-18T11:05:45;-2.20;99.90
4828;DHT22;2428;48.732;9.148;2022-12-18T11:08:20;-2.20;99.90
4828;DHT22;2428;48.732;9.148;2022-12-18T11:10:48;-2.30;99.90
4828;DHT22;2428;48.732;9.148;2022-12-18T11:13:22;-2.30;99.90
4828;DHT22;2428;48.732;9.148;2022-12-18T11:15:49;-2.30;99.90
4828;DHT22;2428;48.732;9.148;2022-12-18T11:18:35;-2.40;99.90
4828;DHT22;2428;48.732;9.148;2022-12-18T11:21:09;-2.30;99.90
4828;DHT22;2428;48.732;9.148;2022-12-18T11:23:37;-2.30;99.90
4828;DHT22;2428;48.732;9.148;2022-12-18T11:26:11;-2.30;99.90
4828;DHT22;2428;48.732;9.148;2022-12-18T11:28:42;-2.20;99.90
4828;DHT22;2428;48.732;9.148;2022-12-18T11:33:34;-2.20;99.90
4828;DHT22;2428;48.732;9.148;2022-12-18T11:36:02;-2.20;99.90
4828;DHT22;2428;48.732;9.148;2022-12-18T11:38:39;-2.20;99.90
4828;DHT22;2428;48.732;9.148;2022-12-18T11:44:33;-2.20;99.90
4828;DHT22;2428;48.732;9.148;2022-12-18T11:47:21;-2.20;99.90
4828;DHT22;2428;48.732;9.148;2022-12-18T11:49:51;-2.30;99.90
4828;DHT22;2428;48.732;9.148;2022-12-18T11:52:23;-2.40;99.90
4828;DHT22;2428;48.732;9.148;2022-12-18T11:54:58;-2.30;99.90
4828;DHT22;2428;48.732;9.148;2022-12-18T12:00:19;-2.20;99.90
4828;DHT22;2428;48.732;9.148;2022-12-18T12:11:07;-2.30;99.90
4828;DHT22;2428;48.732;9.148;2022-12-18T12:13:45;-2.40;99.90
4828;DHT22;2428;48.732;9.148;2022-12-18T12:16:28;-2.50;99.90
4828;DHT22;2428;48.732;9.148;2022-12-18T12:19:15;-2.60;99.90
4828;DHT22;2428;48.732;9.148;2022-12-18T12:40:12;-2.30;99.90
4828;DHT22;2428;48.732;9.148;2022-12-18T12:42:42;-2.20;99.90
4828;DHT22;2428;48.732;9.148;2022-12-18T12:45:50;-2.20;99.90
4828;DHT22;2428;48.732;9.148;2022-12-18T12:48:31;-2.20;99.90
4828;DHT22;2428;48.732;9.148;2022-12-18T12:51:01;-2.20;99.90
4828;DHT22;2428;48.732;9.148;2022-12-18T12:53:35;-2.20;99.90
4828;DHT22;2428;48.732;9.148;2022-12-18T12:56:03;-2.20;99.90
4828;DHT22;2428;48.732;9.148;2022-12-18T12:58:32;-2.20;99.90
4828;DHT22;2428;48.732;9.148;2022-12-18T13:01:08;-2.30;99.90
4828;DHT22;2428;48.732;9.148;2022-12-18T13:03:46;-2.30;99.90
4828;DHT22;2428;48.732;9.148;2022-12-18T13:09:03;-2.30;99.90
4828;DHT22;2428;48.732;9.148;2022-12-18T13:11:45;-2.30;99.90
4828;DHT22;2428;48.732;9.148;2022-12-18T13:14:40;-2.40;99.90
4828;DHT22;2428;48.732;9.148;2022-12-18T13:19:36;-2.20;99.90
4828;DHT22;2428;48.732;9.148;2022-12-18T13:22:01;-2.20;99.90
4828;DHT22;2428;48.732;9.148;2022-12-18T13:24:30;-2.10;99.90
4828;DHT22;2428;48.732;9.148;2022-12-18T13:26:56;-2.10;99.90
4828;DHT22;2428;48.732;9.148;2022-12-18T13:29:51;-2.10;99.90
4828;DHT22;2428;48.732;9.148;2022-12-18T13:32:22;-2.00;99.90
4828;DHT22;2428;48.732;9.148;2022-12-18T13:35:06;-2.00;99.90
4828;DHT22;2428;48.732;9.148;2022-12-18T13:37:43;-2.00;99.90
4828;DHT22;2428;48.732;9.148;2022-12-18T13:45:59;-2.00;99.90
4828;DHT22;2428;48.732;9.148;2022-12-18T13:48:28;-2.00;99.90
4828;DHT22;2428;48.732;9.148;2022-12-18T13:51:04;-2.00;99.90
4828;DHT22;2428;48.732;9.148;2022-12-18T13:56:02;-2.00;99.90
4828;DHT22;2428;48.732;9.148;2022-12-18T13:58:28;-2.00;99.90
4828;DHT22;2428;48.732;9.148;2022-12-18T14:00:53;-2.00;99.90
4828;DHT22;2428;48.732;9.148;2022-12-18T14:03:25;-2.10;99.90
4828;DHT22;2428;48.732;9.148;2022-12-18T14:06:01;-2.10;99.90
4828;DHT22;2428;48.732;9.148;2022-12-18T14:08:33;-2.20;99.90
4828;DHT22;2428;48.732;9.148;2022-12-18T14:11:00;-2.20;99.90
4828;DHT22;2428;48.732;9.148;2022-12-18T14:13:34;-2.20;99.90
4828;DHT22;2428;48.732;9.148;2022-12-18T14:16:03;-2.20;99.90
4828;DHT22;2428;48.732;9.148;2022-12-18T14:21:00;-2.40;99.90
4828;DHT22;2428;48.732;9.148;2022-12-18T14:23:36;-2.50;99.90
4828;DHT22;2428;48.732;9.148;2022-12-18T14:26:20;-2.50;99.90
4828;DHT22;2428;48.732;9.148;2022-12-18T14:28:46;-2.60;99.90
4828;DHT22;2428;48.732;9.148;2022-12-18T14:31:25;-2.60;99.90
4828;DHT22;2428;48.732;9.148;2022-12-18T14:33:52;-2.60;99.90
4828;DHT22;2428;48.732;9.148;2022-12-18T14:36:24;-2.60;99.90
4828;DHT22;2428;48.732;9.148;2022-12-18T14:38:57;-2.60;99.90
4828;DHT22;2428;48.732;9.148;2022-12-18T14:41:25;-2.60;99.90
4828;DHT22;2428;48.732;9.148;2022-12-18T14:43:52;-2.60;99.90
4828;DHT22;2428;48.732;9.148;2022-12-18T14:46:37;-2.50;99.90
4828;DHT22;2428;48.732;9.148;2022-12-18T14:49:19;-2.50;99.90
4828;DHT22;2428;48.732;9.148;2022-12-18T14:51:56;-2.50;99.90
4828;DHT22;2428;48.732;9.148;2022-12-18T14:54:24;-2.60;99.90
4828;DHT22;2428;48.732;9.148;2022-12-18T14:59:40;-2.60;99.90
4828;DHT22;2428;48.732;9.148;2022-12-18T15:02:27;-2.70;99.90
4828;DHT22;2428;48.732;9.148;2022-12-18T15:05:14;-2.70;99.90
4828;DHT22;2428;48.732;9.148;2022-12-18T15:12:49;-2.80;99.90
4828;DHT22;2428;48.732;9.148;2022-12-18T15:25:43;-2.90;99.90
4828;DHT22;2428;48.732;9.148;2022-12-18T15:28:43;-3.00;99.90
4828;DHT22;2428;48.732;9.148;2022-12-18T15:33:34;-3.00;99.90
4828;DHT22;2428;48.732;9.148;2022-12-18T15:36:08;-3.00;99.90
4828;DHT22;2428;48.732;9.148;2022-12-18T15:38:34;-3.00;99.90
4828;DHT22;2428;48.732;9.148;2022-12-18T15:41:00;-3.10;99.90
4828;DHT22;2428;48.732;9.148;2022-12-18T15:43:26;-3.10;99.90
4828;DHT22;2428;48.732;9.148;2022-12-18T15:46:13;-3.10;99.90
4828;DHT22;2428;48.732;9.148;2022-12-18T15:48:46;-3.10;99.90
4828;DHT22;2428;48.732;9.148;2022-12-18T15:51:16;-3.10;99.90
4828;DHT22;2428;48.732;9.148;2022-12-18T15:53:42;-3.20;99.90
4828;DHT22;2428;48.732;9.148;2022-12-18T15:56:13;-3.20;99.90
4828;DHT22;2428;48.732;9.148;2022-12-18T15:58:58;-3.30;99.90
4828;DHT22;2428;48.732;9.148;2022-12-18T16:01:26;-3.40;99.90
4828;DHT22;2428;48.732;9.148;2022-12-18T16:03:52;-3.30;99.90
4828;DHT22;2428;48.732;9.148;2022-12-18T16:06:18;-3.30;99.90
4828;DHT22;2428;48.732;9.148;2022-12-18T16:08:44;-3.30;99.90
4828;DHT22;2428;48.732;9.148;2022-12-18T16:11:27;-3.30;99.90
4828;DHT22;2428;48.732;9.148;2022-12-18T16:14:23;-3.30;99.90
4828;DHT22;2428;48.732;9.148;2022-12-18T16:16:51;-3.40;99.90
4828;DHT22;2428;48.732;9.148;2022-12-18T16:19:18;-3.50;99.90
4828;DHT22;2428;48.732;9.148;2022-12-18T16:21:44;-3.50;99.90
4828;DHT22;2428;48.732;9.148;2022-12-18T16:24:18;-3.50;99.90
4828;DHT22;2428;48.732;9.148;2022-12-18T16:26:45;-3.50;99.90
4828;DHT22;2428;48.732;9.148;2022-12-18T16:29:11;-3.50;99.90
4828;DHT22;2428;48.732;9.148;2022-12-18T16:31:37;-3.50;99.90
4828;DHT22;2428;48.732;9.148;2022-12-18T16:34:23;-3.50;99.90
4828;DHT22;2428;48.732;9.148;2022-12-18T16:36:51;-3.40;99.90
4828;DHT22;2428;48.732;9.148;2022-12-18T16:39:19;-3.40;99.90
4828;DHT22;2428;48.732;9.148;2022-12-18T16:41:45;-3.40;99.90
4828;DHT22;2428;48.732;9.148;2022-12-18T16:44:11;-3.40;99.90
4828;DHT22;2428;48.732;9.148;2022-12-18T16:46:37;-3.50;99.90
4828;DHT22;2428;48.732;9.148;2022-12-18T16:49:04;-3.50;99.90
4828;DHT22;2428;48.732;9.148;2022-12-18T16:51:30;-3.40;99.90
4828;DHT22;2428;48.732;9.148;2022-12-18T16:53:56;-3.40;99.90
4828;DHT22;2428;48.732;9.148;2022-12-18T16:56:21;-3.40;99.90
4828;DHT22;2428;48.732;9.148;2022-12-18T16:58:51;-3.40;99.90
4828;DHT22;2428;48.732;9.148;2022-12-18T17:01:17;-3.40;99.90
4828;DHT22;2428;48.732;9.148;2022-12-18T17:03:43;-3.40;99.90
4828;DHT22;2428;48.732;9.148;2022-12-18T17:06:08;-3.40;99.90
4828;DHT22;2428;48.732;9.148;2022-12-18T17:08:34;-3.30;99.90
4828;DHT22;2428;48.732;9.148;2022-12-18T17:11:04;-3.40;99.90
4828;DHT22;2428;48.732;9.148;2022-12-18T17:13:30;-3.40;99.90
4828;DHT22;2428;48.732;9.148;2022-12-18T17:16:04;-3.40;99.90
4828;DHT22;2428;48.732;9.148;2022-12-18T17:18:30;-3.40;99.90
4828;DHT22;2428;48.732;9.148;2022-12-18T17:21:04;-3.40;99.90
4828;DHT22;2428;48.732;9.148;2022-12-18T17:23:31;-3.40;99.90
4828;DHT22;2428;48.732;9.148;2022-12-18T17:25:58;-3.40;99.90
4828;DHT22;2428;48.732;9.148;2022-12-18T17:28:24;-3.30;99.90
4828;DHT22;2428;48.732;9.148;2022-12-18T17:30:51;-3.40;99.90
4828;DHT22;2428;48.732;9.148;2022-12-18T17:33:17;-3.30;99.90
4828;DHT22;2428;48.732;9.148;2022-12-18T17:35:43;-3.30;99.90
4828;DHT22;2428;48.732;9.148;2022-12-18T17:38:08;-3.30;99.90
4828;DHT22;2428;48.732;9.148;2022-12-18T17:40:34;-3.40;99.90
4828;DHT22;2428;48.732;9.148;2022-12-18T17:43:00;-3.40;99.90
4828;DHT22;2428;48.732;9.148;2022-12-18T17:45:25;-3.40;99.90
4828;DHT22;2428;48.732;9.148;2022-12-18T17:47:51;-3.30;99.90
4828;DHT22;2428;48.732;9.148;2022-12-18T17:50:17;-3.30;99.90
4828;DHT22;2428;48.732;9.148;2022-12-18T17:52:42;-3.30;99.90
4828;DHT22;2428;48.732;9.148;2022-12-18T17:55:08;-3.30;99.90
4828;DHT22;2428;48.732;9.148;2022-12-18T17:57:34;-3.30;99.90
4828;DHT22;2428;48.732;9.148;2022-12-18T18:00:02;-3.20;99.90
4828;DHT22;2428;48.732;9.148;2022-12-18T18:02:28;-3.20;99.90
4828;DHT22;2428;48.732;9.148;2022-12-18T18:04:53;-3.20;99.90
4828;DHT22;2428;48.732;9.148;2022-12-18T18:07:19;-3.20;99.90
4828;DHT22;2428;48.732;9.148;2022-12-18T18:09:44;-3.20;99.90
4828;DHT22;2428;48.732;9.148;2022-12-18T18:12:10;-3.20;99.90
4828;DHT22;2428;48.732;9.148;2022-12-18T18:14:54;-3.20;99.90